Time;durP1;ratioP1;P1;durP2;ratioP2;P2;SDS_P1;SDS_P2;PMS_P1;PMS_P2;Temp;Humidity;BMP_temperature;BMP_pressure;BME280_temperature;BME280_humidity;BME280_pressure;Samples;Min_cycle;Max_cycle;Signal;HPM_P1;HPM_P2
2021/12/14 00:00:17;;;;;;;7.32;5.35;;;;;15.20;102454.00;;;;5014478;28;20216;-79
2021/12/14 00:02:47;;;;;;;6.88;5.18;;;;;15.20;102447.00;;;;5026818;28;20192;-80
2021/12/14 00:05:17;;;;;;;8.57;5.90;;;;;15.20;102456.00;;;;5024601;28;20399;-79
2021/12/14 00:07:45;;;;;;;6.25;5.35;;;;;15.20;102461.00;;;;5027311;28;20196;-79
2021/12/14 00:10:29;;;;;;;7.60;6.05;;;;;15.20;102471.00;;;;5026317;28;20208;-79
2021/12/14 00:13:04;;;;;;;7.55;5.85;;;;;15.20;102472.00;;;;5027363;28;20741;-79
2021/12/14 00:15:32;;;;;;;8.45;5.30;;;;;15.20;102471.00;;;;5026983;28;20211;-79
2021/12/14 00:18:04;;;;;;;7.32;5.82;;;;;15.20;102470.00;;;;5027260;28;20196;-79
2021/12/14 00:20:35;;;;;;;9.18;6.30;;;;;15.20;102468.00;;;;5030446;28;20215;-80
2021/12/14 00:25:51;;;;;;;7.55;5.88;;;;;15.20;102447.00;;;;5003935;28;20282;-79
2021/12/14 00:28:23;;;;;;;8.27;6.28;;;;;15.20;102444.00;;;;5014054;28;20213;-79
2021/12/14 00:30:52;;;;;;;6.93;5.97;;;;;15.20;102451.00;;;;5029353;28;20211;-79
2021/12/14 00:33:23;;;;;;;7.55;5.78;;;;;15.10;102453.00;;;;5029511;28;20192;-79
2021/12/14 00:35:51;;;;;;;8.25;6.07;;;;;15.20;102468.00;;;;5030950;28;20207;-79
2021/12/14 00:38:22;;;;;;;11.95;6.18;;;;;15.10;102476.00;;;;5030074;28;20196;-79
2021/12/14 00:40:53;;;;;;;10.00;6.97;;;;;15.10;102474.00;;;;5030239;28;20287;-80
2021/12/14 00:43:20;;;;;;;7.72;6.28;;;;;15.20;102482.00;;;;5013008;28;20553;-79
2021/12/14 00:45:48;;;;;;;8.50;6.72;;;;;15.20;102468.00;;;;5030100;28;20216;-80
2021/12/14 00:48:16;;;;;;;7.60;6.38;;;;;15.10;102456.00;;;;5030420;28;20208;-79
2021/12/14 00:50:51;;;;;;;9.27;6.72;;;;;15.10;102465.00;;;;5029619;28;20200;-80
2021/12/14 00:53:18;;;;;;;8.80;6.35;;;;;15.20;102481.00;;;;5029976;28;20215;-80
2021/12/14 00:55:49;;;;;;;9.05;6.05;;;;;15.10;102490.00;;;;5029645;28;20630;-79
2021/12/14 00:58:18;;;;;;;8.27;6.38;;;;;15.10;102483.00;;;;5012084;28;20200;-81
2021/12/14 01:00:48;;;;;;;8.73;6.40;;;;;15.10;102479.00;;;;5024474;28;20205;-79
2021/12/14 01:03:16;;;;;;;10.25;7.13;;;;;15.10;102477.00;;;;5030057;28;20199;-79
2021/12/14 01:05:48;;;;;;;9.23;7.25;;;;;15.10;102476.00;;;;5026966;28;20212;-79
2021/12/14 01:08:20;;;;;;;8.05;6.38;;;;;15.10;102458.00;;;;5030803;28;20705;-80
2021/12/14 01:10:52;;;;;;;11.05;6.85;;;;;15.10;102449.00;;;;5024731;28;20203;-80
2021/12/14 01:13:23;;;;;;;10.48;7.70;;;;;15.10;102440.00;;;;5009937;28;20671;-79
2021/12/14 01:16:01;;;;;;;10.75;7.00;;;;;15.10;102444.00;;;;5010715;28;20198;-80
2021/12/14 01:18:44;;;;;;;9.40;7.05;;;;;15.10;102428.00;;;;5018227;28;20232;-79
2021/12/14 01:21:23;;;;;;;9.63;6.30;;;;;15.10;102420.00;;;;5029174;28;20197;-79
2021/12/14 01:24:00;;;;;;;9.23;6.95;;;;;15.10;102431.00;;;;5029812;28;20192;-80
2021/12/14 01:26:29;;;;;;;8.70;6.53;;;;;15.10;102433.00;;;;5028908;28;20200;-79
2021/12/14 01:28:57;;;;;;;10.35;7.43;;;;;15.10;102429.00;;;;5029241;28;20250;-80
2021/12/14 01:31:31;;;;;;;8.30;6.63;;;;;15.10;102425.00;;;;5028055;28;20204;-79
2021/12/14 01:34:02;;;;;;;10.48;7.35;;;;;15.10;102411.00;;;;5029448;28;20287;-80
2021/12/14 01:36:39;;;;;;;9.95;7.28;;;;;15.10;102423.00;;;;5028279;28;20204;-80
2021/12/14 01:39:34;;;;;;;10.70;7.90;;;;;15.00;102413.00;;;;5029413;28;20301;-80
2021/12/14 01:42:05;;;;;;;8.65;7.45;;;;;15.00;102401.00;;;;5029021;28;20207;-79
2021/12/14 01:44:37;;;;;;;9.65;6.65;;;;;15.00;102419.00;;;;5028513;28;20208;-79
2021/12/14 01:47:08;;;;;;;10.18;6.80;;;;;15.00;102416.00;;;;5028815;28;20189;-79
2021/12/14 01:49:36;;;;;;;9.43;6.32;;;;;15.10;102421.00;;;;5028476;28;20207;-79
2021/12/14 01:52:08;;;;;;;9.95;6.68;;;;;15.00;102423.00;;;;5020450;28;20560;-79
2021/12/14 01:54:39;;;;;;;9.48;6.47;;;;;15.10;102430.00;;;;5023951;28;20674;-79
2021/12/14 01:57:09;;;;;;;8.32;6.40;;;;;15.10;102430.00;;;;5028689;28;20233;-79
2021/12/14 01:59:39;;;;;;;11.88;7.20;;;;;15.10;102429.00;;;;5028232;28;20220;-79
2021/12/14 02:02:21;;;;;;;9.30;6.50;;;;;15.00;102423.00;;;;5026487;28;20644;-79
2021/12/14 02:04:50;;;;;;;9.32;7.25;;;;;15.00;102435.00;;;;5028625;28;20987;-80
2021/12/14 02:07:20;;;;;;;9.13;7.07;;;;;15.00;102427.00;;;;5028785;28;20207;-80
2021/12/14 02:09:53;;;;;;;9.70;7.28;;;;;15.00;102436.00;;;;5015518;28;20215;-80
2021/12/14 02:12:24;;;;;;;9.40;7.28;;;;;15.00;102437.00;;;;5028354;28;20208;-79
2021/12/14 02:14:51;;;;;;;10.20;7.28;;;;;15.00;102425.00;;;;5028560;28;20207;-79
2021/12/14 02:17:22;;;;;;;10.30;6.55;;;;;15.00;102446.00;;;;5028024;28;20690;-79
2021/12/14 02:19:50;;;;;;;10.05;7.32;;;;;15.00;102442.00;;;;5027986;28;20712;-80
2021/12/14 02:22:19;;;;;;;11.15;7.70;;;;;14.90;102447.00;;;;5028702;28;20204;-79
2021/12/14 02:24:51;;;;;;;10.52;7.32;;;;;14.90;102441.00;;;;5028880;28;20896;-79
2021/12/14 02:27:19;;;;;;;10.73;8.13;;;;;14.90;102438.00;;;;5026318;28;20581;-79
2021/12/14 02:29:48;;;;;;;12.45;8.23;;;;;14.90;102435.00;;;;5027817;28;20208;-78
2021/12/14 02:32:18;;;;;;;12.15;8.00;;;;;14.90;102439.00;;;;5028455;28;20199;-79
2021/12/14 02:34:48;;;;;;;10.90;7.80;;;;;14.90;102433.00;;;;5021537;28;20188;-79
2021/12/14 02:37:16;;;;;;;10.55;7.57;;;;;14.90;102426.00;;;;5027630;28;20192;-79
2021/12/14 02:40:01;;;;;;;10.50;7.70;;;;;14.90;102428.00;;;;5028182;28;20232;-79
2021/12/14 02:42:31;;;;;;;9.95;7.68;;;;;14.90;102423.00;;;;5019258;28;20639;-79
2021/12/14 02:44:59;;;;;;;10.70;7.57;;;;;14.90;102416.00;;;;5022755;28;20220;-79
2021/12/14 02:47:28;;;;;;;11.63;8.30;;;;;14.90;102395.00;;;;5027700;28;20254;-79
2021/12/14 02:49:55;;;;;;;9.30;6.80;;;;;14.90;102404.00;;;;5028381;28;20284;-80
2021/12/14 02:52:32;;;;;;;10.38;6.82;;;;;14.90;102400.00;;;;5028319;28;20204;-79
2021/12/14 02:55:10;;;;;;;9.73;7.35;;;;;14.90;102404.00;;;;5027817;28;20203;-79
2021/12/14 02:57:40;;;;;;;11.52;7.20;;;;;14.90;102404.00;;;;5027429;28;20188;-79
2021/12/14 03:00:11;;;;;;;9.20;6.82;;;;;14.90;102392.00;;;;5027280;28;20220;-80
2021/12/14 03:02:39;;;;;;;11.80;8.27;;;;;14.90;102387.00;;;;5027898;28;20196;-79
2021/12/14 03:05:12;;;;;;;9.68;7.28;;;;;14.80;102388.00;;;;5027914;28;20208;-79
2021/12/14 03:07:44;;;;;;;10.80;7.47;;;;;14.80;102396.00;;;;5027744;28;20534;-79
2021/12/14 03:10:33;;;;;;;9.93;6.50;;;;;14.80;102377.00;;;;5026961;28;20201;-79
2021/12/14 03:13:03;;;;;;;8.77;6.63;;;;;14.80;102386.00;;;;5027742;28;20203;-79
2021/12/14 03:15:35;;;;;;;9.35;6.85;;;;;14.80;102382.00;;;;5027192;28;20195;-79
2021/12/14 03:18:07;;;;;;;10.07;7.75;;;;;14.80;102376.00;;;;5026083;28;20214;-79
2021/12/14 03:20:38;;;;;;;9.18;6.78;;;;;14.80;102363.00;;;;5027145;28;20306;-79
2021/12/14 03:23:08;;;;;;;9.65;7.30;;;;;14.80;102370.00;;;;5027300;28;20196;-79
2021/12/14 03:25:41;;;;;;;11.32;8.27;;;;;14.80;102393.00;;;;5026248;28;20781;-79
2021/12/14 03:28:10;;;;;;;11.07;7.57;;;;;14.80;102408.00;;;;5027673;28;20200;-79
2021/12/14 03:30:42;;;;;;;11.05;7.75;;;;;14.80;102408.00;;;;5027078;28;20192;-79
2021/12/14 03:33:13;;;;;;;10.10;7.85;;;;;14.80;102413.00;;;;5026883;28;20204;-79
2021/12/14 03:35:44;;;;;;;10.77;7.85;;;;;14.80;102423.00;;;;5024600;28;20196;-79
2021/12/14 03:38:18;;;;;;;9.43;7.22;;;;;14.80;102421.00;;;;5027498;28;20254;-79
2021/12/14 03:40:56;;;;;;;10.82;6.93;;;;;14.70;102433.00;;;;5025990;28;20227;-79
2021/12/14 03:43:24;;;;;;;10.02;7.05;;;;;14.80;102431.00;;;;5028148;28;20216;-79
2021/12/14 03:45:52;;;;;;;10.30;7.70;;;;;14.80;102438.00;;;;5026891;28;20212;-80
2021/12/14 03:48:23;;;;;;;10.63;7.40;;;;;14.80;102444.00;;;;5027733;28;20287;-79
2021/12/14 03:50:50;;;;;;;10.55;7.82;;;;;14.80;102451.00;;;;5021368;28;20239;-79
2021/12/14 03:53:20;;;;;;;11.10;7.85;;;;;14.80;102453.00;;;;5009916;28;20225;-79
2021/12/14 03:55:53;;;;;;;10.43;8.05;;;;;14.80;102445.00;;;;5029976;28;20220;-79
2021/12/14 03:58:23;;;;;;;10.07;7.25;;;;;14.80;102434.00;;;;5012116;28;20259;-79
2021/12/14 04:00:55;;;;;;;10.18;8.05;;;;;14.80;102435.00;;;;5029834;28;20227;-80
2021/12/14 04:03:25;;;;;;;10.77;7.22;;;;;14.80;102433.00;;;;5031375;28;20204;-79
2021/12/14 04:05:52;;;;;;;11.10;7.53;;;;;14.80;102431.00;;;;5031404;28;20197;-79
2021/12/14 04:08:23;;;;;;;9.43;6.82;;;;;14.80;102428.00;;;;5024036;28;20232;-80
2021/12/14 04:10:55;;;;;;;10.13;7.35;;;;;14.80;102429.00;;;;5030985;28;20204;-79
2021/12/14 04:13:25;;;;;;;9.85;7.22;;;;;14.80;102429.00;;;;5016728;28;20199;-80
2021/12/14 04:15:54;;;;;;;9.50;7.05;;;;;14.90;102427.00;;;;5030770;28;20236;-79
2021/12/14 04:18:21;;;;;;;10.43;8.00;;;;;14.90;102432.00;;;;5030693;28;20192;-79
2021/12/14 04:20:51;;;;;;;9.45;6.65;;;;;14.90;102445.00;;;;5031458;28;20232;-80
2021/12/14 04:23:23;;;;;;;11.45;8.10;;;;;14.90;102439.00;;;;5031068;28;20185;-80
2021/12/14 04:25:54;;;;;;;11.55;7.60;;;;;14.90;102438.00;;;;5018430;28;20235;-79
2021/12/14 04:28:25;;;;;;;10.93;7.63;;;;;14.80;102442.00;;;;5031114;28;20193;-79
2021/12/14 04:30:52;;;;;;;12.07;8.02;;;;;14.90;102435.00;;;;5029469;28;20200;-79
2021/12/14 04:33:24;;;;;;;10.30;7.43;;;;;14.90;102433.00;;;;5018613;28;20200;-79
2021/12/14 04:35:53;;;;;;;12.18;7.30;;;;;14.90;102434.00;;;;5026339;28;20933;-79
2021/12/14 04:38:24;;;;;;;9.18;6.45;;;;;14.90;102443.00;;;;5010958;28;20601;-79
2021/12/14 04:52:04;;;;;;;9.35;6.60;;;;;14.90;102416.00;;;;5021002;28;20214;-79
2021/12/14 04:54:38;;;;;;;10.35;7.13;;;;;14.90;102424.00;;;;5030058;28;20459;-79
2021/12/14 04:57:17;;;;;;;9.50;6.53;;;;;14.90;102410.00;;;;5029275;28;20717;-79
2021/12/14 04:59:44;;;;;;;8.52;6.70;;;;;14.90;102402.00;;;;5018455;28;20205;-79
2021/12/14 05:02:15;;;;;;;9.05;6.35;;;;;14.90;102397.00;;;;5028956;28;20207;-79
2021/12/14 05:04:43;;;;;;;9.93;7.13;;;;;14.90;102399.00;;;;5029539;28;20199;-79
2021/12/14 05:07:28;;;;;;;10.32;7.65;;;;;14.90;102394.00;;;;5014901;28;20208;-79
2021/12/14 05:09:55;;;;;;;9.98;6.93;;;;;14.90;102395.00;;;;5017342;28;20215;-80
2021/12/14 05:12:29;;;;;;;9.60;6.53;;;;;14.90;102396.00;;;;5018296;28;20579;-79
2021/12/14 05:14:59;;;;;;;9.45;6.65;;;;;14.90;102390.00;;;;5011663;28;20251;-79
2021/12/14 05:17:30;;;;;;;11.10;7.35;;;;;14.90;102389.00;;;;5028614;28;20196;-79
2021/12/14 05:19:57;;;;;;;10.60;7.47;;;;;14.90;102397.00;;;;5026193;28;20214;-79
2021/12/14 05:22:27;;;;;;;9.02;6.63;;;;;14.90;102394.00;;;;5021692;28;20203;-80
2021/12/14 05:24:57;;;;;;;7.93;6.13;;;;;14.90;102398.00;;;;5022491;28;20711;-79
2021/12/14 05:27:31;;;;;;;10.05;6.55;;;;;14.90;102392.00;;;;5025017;28;20203;-80
2021/12/14 05:30:07;;;;;;;8.68;6.18;;;;;14.80;102395.00;;;;5022906;28;20203;-80
2021/12/14 05:32:35;;;;;;;9.45;6.75;;;;;14.90;102397.00;;;;5023328;28;20224;-79
2021/12/14 05:35:04;;;;;;;10.20;6.38;;;;;14.90;102395.00;;;;5021773;28;20204;-80
2021/12/14 05:37:35;;;;;;;7.82;5.50;;;;;14.90;102404.00;;;;5017555;28;20667;-80
2021/12/14 05:40:06;;;;;;;8.23;6.18;;;;;14.90;102405.00;;;;5021468;28;20189;-80
2021/12/14 05:45:23;;;;;;;9.00;6.30;;;;;14.80;102408.00;;;;5023608;28;20741;-79
2021/12/14 05:47:55;;;;;;;10.40;7.28;;;;;14.80;102411.00;;;;5022748;28;20197;-79
2021/12/14 05:50:25;;;;;;;9.45;6.55;;;;;14.80;102410.00;;;;5015993;28;20223;-80
2021/12/14 05:52:52;;;;;;;8.38;6.80;;;;;14.90;102418.00;;;;5017734;28;20259;-79
2021/12/14 05:55:25;;;;;;;9.63;6.53;;;;;14.80;102420.00;;;;5017540;28;20239;-80
2021/12/14 05:57:55;;;;;;;7.68;5.95;;;;;14.80;102427.00;;;;5017228;28;20196;-80
2021/12/14 06:00:23;;;;;;;9.88;6.88;;;;;14.90;102431.00;;;;5024285;28;20318;-79
2021/12/14 06:02:51;;;;;;;9.82;7.10;;;;;14.90;102432.00;;;;5019615;28;20223;-80
2021/12/14 06:05:21;;;;;;;9.63;6.85;;;;;14.80;102430.00;;;;5021425;28;20200;-79
2021/12/14 06:07:50;;;;;;;8.90;6.30;;;;;14.80;102421.00;;;;5020324;28;20216;-79
2021/12/14 06:10:22;;;;;;;8.48;6.28;;;;;14.80;102425.00;;;;5021893;28;20219;-79
2021/12/14 06:12:50;;;;;;;8.35;6.00;;;;;14.90;102438.00;;;;5019245;28;20269;-79
2021/12/14 06:15:25;;;;;;;9.07;7.00;;;;;14.80;102433.00;;;;5023475;28;20196;-79
2021/12/14 06:17:53;;;;;;;8.35;6.18;;;;;14.90;102441.00;;;;5023744;28;20275;-79
2021/12/14 06:20:22;;;;;;;9.25;6.35;;;;;14.80;102438.00;;;;5016565;28;20617;-79
2021/12/14 06:22:52;;;;;;;8.48;6.18;;;;;14.80;102434.00;;;;5022224;28;20562;-79
2021/12/14 06:25:24;;;;;;;10.93;7.45;;;;;14.80;102451.00;;;;5022607;28;20291;-80
2021/12/14 06:27:53;;;;;;;9.20;6.70;;;;;14.90;102441.00;;;;5028585;28;20204;-79
2021/12/14 06:30:23;;;;;;;8.85;6.85;;;;;14.80;102441.00;;;;5027669;28;20204;-79
2021/12/14 06:32:54;;;;;;;11.15;6.10;;;;;14.90;102451.00;;;;5028830;28;20251;-79
2021/12/14 06:35:23;;;;;;;8.85;6.50;;;;;14.90;102444.00;;;;5028911;28;20207;-79
2021/12/14 06:38:25;;;;;;;9.57;6.47;;;;;14.80;102444.00;;;;5028716;28;20204;-80
2021/12/14 06:40:57;;;;;;;8.98;5.97;;;;;14.80;102446.00;;;;5014955;28;20273;-80
2021/12/14 06:43:27;;;;;;;10.90;7.32;;;;;14.80;102454.00;;;;5029019;28;20208;-79
2021/12/14 06:45:59;;;;;;;12.00;6.97;;;;;14.90;102451.00;;;;5029024;28;20629;-79
2021/12/14 06:48:30;;;;;;;10.60;6.50;;;;;14.80;102452.00;;;;5029253;28;20569;-78
2021/12/14 06:51:03;;;;;;;8.85;6.35;;;;;14.80;102450.00;;;;5028069;28;20697;-78
2021/12/14 06:53:31;;;;;;;8.95;6.50;;;;;14.80;102460.00;;;;5027925;28;20250;-79
2021/12/14 06:56:02;;;;;;;9.07;5.97;;;;;14.90;102459.00;;;;5027873;28;20216;-78
2021/12/14 06:58:32;;;;;;;9.93;6.43;;;;;14.80;102469.00;;;;5017949;28;20197;-78
2021/12/14 07:01:05;;;;;;;8.18;6.40;;;;;14.80;102466.00;;;;5026021;28;20224;-78
2021/12/14 07:03:38;;;;;;;12.32;7.05;;;;;14.80;102465.00;;;;5028597;28;20207;-79
2021/12/14 07:06:06;;;;;;;7.55;5.80;;;;;14.80;102461.00;;;;5029095;28;20207;-78
2021/12/14 07:08:33;;;;;;;10.13;6.78;;;;;14.80;102456.00;;;;5028399;28;20200;-78
2021/12/14 07:11:00;;;;;;;8.43;6.68;;;;;14.80;102469.00;;;;5028280;28;20204;-78
2021/12/14 07:13:35;;;;;;;9.30;6.65;;;;;14.80;102475.00;;;;5027619;28;20311;-78
2021/12/14 07:16:05;;;;;;;9.40;6.97;;;;;14.80;102487.00;;;;5012747;28;20208;-78
2021/12/14 07:18:34;;;;;;;8.35;6.10;;;;;14.90;102481.00;;;;5008508;28;20197;-78
2021/12/14 07:21:02;;;;;;;10.77;7.25;;;;;14.90;102491.00;;;;5008875;28;20248;-78
2021/12/14 07:23:32;;;;;;;10.52;6.95;;;;;14.90;102488.00;;;;5007736;28;20212;-78
2021/12/14 07:26:01;;;;;;;9.30;6.10;;;;;14.90;102498.00;;;;5019941;28;20242;-78
2021/12/14 07:28:36;;;;;;;10.10;7.03;;;;;14.80;102493.00;;;;5027974;28;20205;-78
2021/12/14 07:31:13;;;;;;;8.20;5.85;;;;;14.80;102497.00;;;;5025090;28;20304;-78
2021/12/14 07:33:46;;;;;;;10.52;6.47;;;;;14.80;102496.00;;;;5013998;28;20203;-78
2021/12/14 07:36:14;;;;;;;8.50;6.20;;;;;14.90;102496.00;;;;5027259;28;20246;-78
2021/12/14 07:38:45;;;;;;;9.85;6.75;;;;;14.90;102486.00;;;;5028691;28;20211;-78
2021/12/14 07:41:23;;;;;;;10.25;7.03;;;;;14.80;102485.00;;;;5026332;28;20591;-78
2021/12/14 07:43:56;;;;;;;9.55;6.47;;;;;14.90;102487.00;;;;5027896;28;20314;-78
2021/12/14 07:46:31;;;;;;;9.75;6.97;;;;;14.80;102487.00;;;;5027746;28;20212;-78
2021/12/14 07:49:01;;;;;;;11.25;7.25;;;;;14.80;102500.00;;;;5020606;28;20208;-78
2021/12/14 07:51:31;;;;;;;10.05;7.18;;;;;14.80;102510.00;;;;5008757;28;20204;-78
2021/12/14 07:54:04;;;;;;;10.18;7.00;;;;;14.80;102505.00;;;;5023284;28;20254;-78
2021/12/14 07:56:36;;;;;;;10.50;6.88;;;;;14.80;102509.00;;;;5026607;28;20239;-79
2021/12/14 07:59:11;;;;;;;13.80;7.72;;;;;14.80;102509.00;;;;5027958;28;20196;-78
2021/12/14 08:01:39;;;;;;;9.00;6.72;;;;;14.80;102497.00;;;;5027960;28;20226;-78
2021/12/14 08:04:11;;;;;;;9.13;6.45;;;;;14.80;102506.00;;;;5028440;28;20197;-78
2021/12/14 08:06:49;;;;;;;11.10;7.55;;;;;14.80;102512.00;;;;5014708;28;20602;-79
2021/12/14 08:09:32;;;;;;;8.75;6.57;;;;;14.80;102508.00;;;;5008836;28;20209;-79
2021/12/14 08:11:59;;;;;;;9.70;6.43;;;;;14.90;102512.00;;;;5019275;28;20230;-78
2021/12/14 08:14:29;;;;;;;11.52;6.22;;;;;14.90;102523.00;;;;5020820;28;20624;-79
2021/12/14 08:17:01;;;;;;;11.00;7.25;;;;;14.90;102520.00;;;;5025658;28;20642;-79
2021/12/14 08:19:33;;;;;;;8.18;5.95;;;;;14.90;102521.00;;;;5027338;28;20262;-79
2021/12/14 08:22:05;;;;;;;10.25;6.63;;;;;14.90;102524.00;;;;5027082;28;20720;-79
2021/12/14 08:24:32;;;;;;;9.82;6.88;;;;;15.00;102530.00;;;;5020228;28;20577;-78
2021/12/14 08:27:02;;;;;;;10.73;7.03;;;;;15.00;102526.00;;;;5026234;28;20189;-79
2021/12/14 08:29:31;;;;;;;10.43;7.13;;;;;15.00;102528.00;;;;5026900;28;20192;-78
2021/12/14 08:32:10;;;;;;;9.57;6.57;;;;;15.00;102532.00;;;;5027423;28;20196;-78
2021/12/14 08:34:40;;;;;;;10.98;7.00;;;;;15.00;102536.00;;;;5027016;28;20266;-79
2021/12/14 08:37:10;;;;;;;10.45;7.30;;;;;15.10;102532.00;;;;5026893;28;20234;-79
2021/12/14 08:39:44;;;;;;;9.13;6.43;;;;;15.00;102531.00;;;;5024053;28;20221;-79
2021/12/14 08:42:18;;;;;;;10.02;6.93;;;;;15.10;102536.00;;;;5010611;28;20236;-79
2021/12/14 08:44:53;;;;;;;9.30;6.85;;;;;15.10;102546.00;;;;5010865;28;20703;-78
2021/12/14 08:47:31;;;;;;;10.88;6.97;;;;;15.00;102540.00;;;;5027909;28;20214;-79
2021/12/14 08:50:01;;;;;;;11.95;7.15;;;;;15.10;102548.00;;;;5030785;28;20199;-79
2021/12/14 08:52:30;;;;;;;10.10;7.07;;;;;15.10;102539.00;;;;5030608;28;20196;-79
2021/12/14 08:54:59;;;;;;;9.73;7.10;;;;;15.20;102546.00;;;;5029984;28;20287;-79
2021/12/14 08:57:30;;;;;;;12.60;8.15;;;;;15.10;102546.00;;;;5023644;28;20231;-80
2021/12/14 09:00:01;;;;;;;10.68;7.60;;;;;15.20;102542.00;;;;5030255;28;20250;-81
2021/12/14 09:02:31;;;;;;;11.35;7.53;;;;;15.20;102548.00;;;;5029928;28;20232;-80
2021/12/14 09:05:06;;;;;;;10.40;7.80;;;;;15.10;102544.00;;;;5021675;28;20280;-81
2021/12/14 09:07:33;;;;;;;11.20;7.32;;;;;15.20;102539.00;;;;5010721;28;20201;-79
2021/12/14 09:10:05;;;;;;;11.38;7.97;;;;;15.20;102540.00;;;;5011002;28;20220;-80
2021/12/14 09:12:39;;;;;;;10.82;7.18;;;;;15.10;102545.00;;;;5023249;28;20357;-79
2021/12/14 09:15:10;;;;;;;12.35;8.05;;;;;15.20;102542.00;;;;5015133;28;20255;-79
2021/12/14 09:17:39;;;;;;;10.75;7.75;;;;;15.20;102538.00;;;;5023926;28;20203;-79
2021/12/14 09:20:11;;;;;;;11.07;8.05;;;;;15.20;102539.00;;;;5029076;28;20199;-79
2021/12/14 09:22:42;;;;;;;9.57;6.45;;;;;15.20;102542.00;;;;5028672;28;20223;-79
2021/12/14 09:25:13;;;;;;;9.63;6.40;;;;;15.20;102541.00;;;;5029752;28;21256;-79
2021/12/14 09:27:41;;;;;;;11.73;8.18;;;;;15.20;102536.00;;;;5028670;28;20197;-79
2021/12/14 09:30:11;;;;;;;11.73;7.82;;;;;15.20;102538.00;;;;5029417;28;20212;-79
2021/12/14 09:32:41;;;;;;;11.02;7.70;;;;;15.20;102528.00;;;;5009839;28;20209;-79
2021/12/14 09:35:13;;;;;;;11.07;7.57;;;;;15.20;102536.00;;;;5027349;28;20283;-79
2021/12/14 09:37:41;;;;;;;11.85;7.75;;;;;15.30;102536.00;;;;5029110;28;20224;-79
2021/12/14 09:40:12;;;;;;;11.40;8.05;;;;;15.30;102534.00;;;;5029980;28;20200;-79
2021/12/14 09:42:40;;;;;;;9.20;6.88;;;;;15.30;102539.00;;;;5028587;28;20223;-80
2021/12/14 09:45:12;;;;;;;10.85;7.60;;;;;15.30;102546.00;;;;5028477;28;20702;-79
2021/12/14 09:47:42;;;;;;;11.23;7.80;;;;;15.30;102538.00;;;;5027434;28;20204;-80
2021/12/14 09:50:12;;;;;;;11.50;7.28;;;;;15.30;102542.00;;;;5030167;28;20211;-80
2021/12/14 09:52:43;;;;;;;10.77;7.35;;;;;15.30;102538.00;;;;5029304;28;20196;-79
2021/12/14 09:55:15;;;;;;;11.10;7.32;;;;;15.30;102534.00;;;;5028961;28;20254;-79
2021/12/14 09:57:45;;;;;;;10.82;7.50;;;;;15.30;102537.00;;;;5027966;28;20690;-79
2021/12/14 10:00:18;;;;;;;13.65;8.75;;;;;15.30;102534.00;;;;5029133;28;20243;-79
2021/12/14 10:02:49;;;;;;;11.05;7.75;;;;;15.30;102530.00;;;;5027583;28;20620;-79
2021/12/14 10:05:21;;;;;;;11.35;7.85;;;;;15.30;102531.00;;;;5027024;28;20197;-79
2021/12/14 10:07:49;;;;;;;11.25;7.47;;;;;15.40;102531.00;;;;5028526;28;20197;-79
2021/12/14 10:10:20;;;;;;;10.35;7.38;;;;;15.40;102535.00;;;;5029237;28;20226;-79
2021/12/14 10:12:50;;;;;;;11.32;8.10;;;;;15.40;102529.00;;;;5028271;28;20192;-79
2021/12/14 10:15:31;;;;;;;15.23;8.63;;;;;15.40;102523.00;;;;5030044;28;20235;-80
2021/12/14 10:18:05;;;;;;;12.15;7.82;;;;;15.40;102527.00;;;;5028082;28;20211;-80
2021/12/14 10:20:38;;;;;;;12.48;8.02;;;;;15.40;102529.00;;;;5024619;28;20200;-79
2021/12/14 10:23:06;;;;;;;10.55;7.72;;;;;15.50;102528.00;;;;5011956;28;20229;-79
2021/12/14 10:25:34;;;;;;;13.00;8.73;;;;;15.50;102531.00;;;;5019212;28;20280;-79
2021/12/14 10:28:03;;;;;;;12.88;8.07;;;;;15.50;102537.00;;;;5028804;28;20674;-78
2021/12/14 10:30:35;;;;;;;14.20;8.43;;;;;15.50;102530.00;;;;5024670;28;20208;-79
2021/12/14 10:33:04;;;;;;;11.73;8.15;;;;;15.50;102528.00;;;;5028239;28;20663;-80
2021/12/14 10:35:39;;;;;;;13.50;9.40;;;;;15.50;102542.00;;;;5019303;28;20223;-79
2021/12/14 10:38:20;;;;;;;12.30;8.50;;;;;15.50;102528.00;;;;5024598;28;20228;-78
2021/12/14 10:43:39;;;;;;;11.45;8.32;;;;;15.50;102540.00;;;;5028095;28;20355;-78
2021/12/14 10:46:10;;;;;;;12.38;8.23;;;;;15.50;102541.00;;;;5028442;28;21093;-78
2021/12/14 10:48:42;;;;;;;12.15;8.20;;;;;15.50;102532.00;;;;5027590;28;20697;-79
2021/12/14 10:51:13;;;;;;;12.02;9.05;;;;;15.60;102544.00;;;;5027004;28;20233;-78
2021/12/14 10:53:43;;;;;;;13.32;8.68;;;;;15.60;102543.00;;;;5028392;28;20200;-78
2021/12/14 10:56:19;;;;;;;13.52;8.98;;;;;15.50;102543.00;;;;5023821;28;20219;-78
2021/12/14 10:58:50;;;;;;;11.15;8.23;;;;;15.50;102548.00;;;;5028220;28;20215;-78
2021/12/14 11:01:23;;;;;;;13.05;9.20;;;;;15.50;102540.00;;;;5029000;28;20199;-79
2021/12/14 11:03:57;;;;;;;15.18;9.80;;;;;15.50;102536.00;;;;5027568;28;20263;-79
2021/12/14 11:06:29;;;;;;;14.95;9.15;;;;;15.60;102542.00;;;;5008614;28;20212;-79
2021/12/14 11:09:39;;;;;;;13.63;9.52;;;;;15.60;102535.00;;;;5021025;28;20269;-79
2021/12/14 11:11:58;;;;;;;13.00;8.50;;;;;15.50;102538.00;;;;5027089;28;20206;-79
2021/12/14 11:14:28;;;;;;;13.15;8.45;;;;;15.60;102536.00;;;;5024985;28;20200;-78
2021/12/14 11:19:54;;;;;;;13.00;9.65;;;;;15.50;102524.00;;;;4989335;28;20803;-79
2021/12/14 11:22:24;;;;;;;14.88;9.43;;;;;15.60;102531.00;;;;5028537;28;20228;-78
2021/12/14 11:24:55;;;;;;;16.55;10.50;;;;;15.60;102531.00;;;;5027229;28;20672;-79
2021/12/14 11:27:25;;;;;;;16.35;10.73;;;;;15.60;102527.00;;;;5027505;28;20196;-79
2021/12/14 11:30:10;;;;;;;14.95;9.80;;;;;15.60;102525.00;;;;5027385;28;20297;-77
2021/12/14 11:32:41;;;;;;;13.90;9.38;;;;;15.70;102524.00;;;;5022851;28;20290;-78
2021/12/14 11:35:22;;;;;;;15.63;9.88;;;;;15.60;102526.00;;;;5026785;28;20254;-77
2021/12/14 11:37:50;;;;;;;17.27;10.13;;;;;15.70;102520.00;;;;5026411;28;20200;-78
2021/12/14 11:40:20;;;;;;;17.90;10.27;;;;;15.70;102522.00;;;;5027387;28;20208;-78
2021/12/14 11:42:48;;;;;;;17.60;11.30;;;;;15.70;102516.00;;;;5026037;28;20221;-79
2021/12/14 11:45:19;;;;;;;16.23;11.10;;;;;15.70;102514.00;;;;5025265;28;20223;-78
2021/12/14 11:47:49;;;;;;;19.15;10.48;;;;;15.70;102510.00;;;;5025267;28;20293;-78
2021/12/14 11:50:26;;;;;;;16.20;10.13;;;;;15.60;102509.00;;;;5026669;28;20195;-79
2021/12/14 11:52:57;;;;;;;15.13;9.00;;;;;15.70;102511.00;;;;5026920;28;20279;-79
2021/12/14 11:55:34;;;;;;;15.68;10.02;;;;;15.70;102507.00;;;;5026183;28;20303;-78
2021/12/14 11:58:20;;;;;;;18.45;11.77;;;;;15.70;102507.00;;;;5025736;28;20200;-78
2021/12/14 12:00:51;;;;;;;18.52;11.07;;;;;15.70;102497.00;;;;5026062;28;20192;-78
2021/12/14 12:03:20;;;;;;;16.38;10.75;;;;;15.70;102506.00;;;;5023793;28;20216;-77
2021/12/14 12:06:01;;;;;;;16.42;10.45;;;;;15.70;102509.00;;;;5027556;28;20211;-78
2021/12/14 12:11:17;;;;;;;15.20;9.80;;;;;15.70;102508.00;;;;5027668;28;20728;-79
2021/12/14 12:13:45;;;;;;;16.55;10.73;;;;;15.80;102513.00;;;;5028082;28;20203;-78
2021/12/14 12:16:16;;;;;;;15.07;9.98;;;;;15.70;102502.00;;;;5030713;28;20200;-78
2021/12/14 12:19:09;;;;;;;17.33;10.40;;;;;15.70;102518.00;;;;5030570;28;20204;-78
2021/12/14 12:21:38;;;;;;;16.05;10.25;;;;;15.70;102512.00;;;;5028810;28;20203;-78
2021/12/14 12:24:06;;;;;;;16.08;10.55;;;;;15.70;102508.00;;;;5027987;28;20228;-79
2021/12/14 12:26:34;;;;;;;14.73;10.00;;;;;15.70;102508.00;;;;5030807;28;20201;-78
2021/12/14 12:29:06;;;;;;;14.95;10.52;;;;;15.70;102501.00;;;;5030477;28;20669;-79
2021/12/14 12:31:39;;;;;;;15.88;10.05;;;;;15.70;102502.00;;;;5027610;28;20714;-78
2021/12/14 12:34:11;;;;;;;17.70;10.70;;;;;15.70;102509.00;;;;5029646;28;20196;-78
2021/12/14 12:36:42;;;;;;;17.90;11.30;;;;;15.70;102502.00;;;;5030092;28;20346;-78
2021/12/14 12:39:15;;;;;;;14.10;10.38;;;;;15.70;102507.00;;;;5025700;28;20209;-77
2021/12/14 12:41:47;;;;;;;15.30;10.32;;;;;15.70;102507.00;;;;5030283;28;20196;-79
2021/12/14 12:44:17;;;;;;;15.48;10.38;;;;;15.70;102501.00;;;;5030653;28;20290;-78
2021/12/14 12:46:49;;;;;;;13.80;8.90;;;;;15.70;102502.00;;;;5029147;28;20220;-77